Time;durP1;ratioP1;P1;durP2;ratioP2;P2;SDS_P1;SDS_P2;PMS_P1;PMS_P2;Temp;Humidity;BMP_temperature;BMP_pressure;BME280_temperature;BME280_humidity;BME280_pressure;Samples;Min_cycle;Max_cycle;Signal;HPM_P1;HPM_P2
2023/02/13 00:01:13;;;;;;;11.97;9.87;;;;;;;4.16;94.45;97455.31;6065165;23;20223;-80
2023/02/13 00:03:40;;;;;;;13.20;9.50;;;;;;;4.21;93.97;97455.88;6066907;23;20176;-81
2023/02/13 00:06:06;;;;;;;13.40;10.03;;;;;;;4.20;94.05;97455.97;6065630;23;20209;-81
2023/02/13 00:08:33;;;;;;;12.87;10.07;;;;;;;4.26;93.76;97458.13;6050961;23;20209;-80
2023/02/13 00:11:00;;;;;;;15.33;10.07;;;;;;;4.35;92.48;97453.31;6065696;23;20208;-80
2023/02/13 00:13:28;;;;;;;13.57;10.67;;;;;;;4.16;93.33;97452.78;6050578;23;20212;-81
2023/02/13 00:15:58;;;;;;;16.13;10.60;;;;;;;4.16;93.89;97450.22;6065753;23;20704;-80
2023/02/13 00:18:26;;;;;;;16.30;9.97;;;;;;;4.12;93.98;97443.66;6066000;23;20245;-81
2023/02/13 00:21:01;;;;;;;17.77;10.13;;;;;;;4.16;94.04;97442.56;6065462;23;20209;-81
2023/02/13 00:23:29;;;;;;;16.37;10.77;;;;;;;4.18;94.04;97435.66;6049978;23;20208;-80
2023/02/13 00:25:56;;;;;;;18.93;10.53;;;;;;;4.25;93.90;97442.00;6065573;23;20284;-80
2023/02/13 00:28:22;;;;;;;15.70;11.20;;;;;;;4.32;93.62;97429.72;6065112;23;20671;-81
2023/02/13 00:30:50;;;;;;;16.10;11.17;;;;;;;4.28;93.74;97431.63;6064865;23;20212;-80
2023/02/13 00:33:16;;;;;;;15.73;11.17;;;;;;;4.44;92.74;97434.88;6066551;23;20180;-81
2023/02/13 00:35:43;;;;;;;14.70;10.70;;;;;;;4.57;91.51;97426.50;6065398;23;20214;-81
2023/02/13 00:38:09;;;;;;;16.57;11.13;;;;;;;4.51;91.67;97431.06;6066555;23;20200;-81
2023/02/13 00:40:35;;;;;;;26.27;12.17;;;;;;;4.42;92.11;97420.63;6066231;23;20223;-81
2023/02/13 00:43:02;;;;;;;35.63;12.97;;;;;;;4.09;94.82;97423.44;6050344;23;20215;-81
2023/02/13 00:45:28;;;;;;;18.53;12.03;;;;;;;3.98;96.35;97418.19;6065382;23;20287;-80
2023/02/13 00:47:56;;;;;;;17.67;12.03;;;;;;;3.94;97.03;97430.28;6065980;23;20208;-81
2023/02/13 00:50:22;;;;;;;25.17;12.13;;;;;;;3.89;97.96;97424.63;6064604;23;20216;-80
2023/02/13 00:52:49;;;;;;;20.03;12.90;;;;;;;3.90;98.54;97423.72;6065560;23;20176;-80
2023/02/13 00:55:15;;;;;;;39.20;13.13;;;;;;;3.71;100.00;97423.97;6064957;23;20554;-81
2023/02/13 00:57:42;;;;;;;39.53;12.73;;;;;;;3.79;100.00;97419.25;6049303;23;20224;-81
2023/02/13 01:00:09;;;;;;;25.00;12.87;;;;;;;3.88;99.80;97428.06;6064148;23;20213;-81
2023/02/13 01:02:36;;;;;;;27.97;13.50;;;;;;;4.03;98.38;97419.56;6035734;23;20256;-81
2023/02/13 01:05:04;;;;;;;25.73;12.87;;;;;;;4.15;97.27;97426.47;6064600;23;20208;-80
2023/02/13 01:07:30;;;;;;;23.87;13.47;;;;;;;4.16;97.38;97424.72;6065324;23;20205;-80
2023/02/13 01:09:56;;;;;;;18.80;12.17;;;;;;;4.19;97.20;97419.44;6065537;23;20204;-81
2023/02/13 01:12:23;;;;;;;28.80;13.13;;;;;;;4.31;95.85;97422.97;6065140;23;20184;-81
2023/02/13 01:14:49;;;;;;;18.00;12.73;;;;;;;4.23;96.99;97422.66;6065486;23;20208;-80
2023/02/13 01:17:16;;;;;;;23.07;13.30;;;;;;;4.38;96.00;97414.88;6065774;23;20783;-81
2023/02/13 01:19:42;;;;;;;21.63;13.30;;;;;;;4.30;95.97;97417.06;6064537;23;20205;-80
2023/02/13 01:22:10;;;;;;;19.47;12.87;;;;;;;4.27;96.44;97413.88;6064994;23;20513;-80
2023/02/13 01:24:37;;;;;;;22.27;13.40;;;;;;;4.23;96.91;97420.09;6064676;23;20216;-80
2023/02/13 01:27:03;;;;;;;23.07;13.60;;;;;;;4.16;97.24;97417.09;6063691;23;20205;-80
2023/02/13 01:29:30;;;;;;;20.33;12.70;;;;;;;4.26;97.14;97415.59;6063969;23;20213;-81
2023/02/13 01:31:56;;;;;;;19.83;13.03;;;;;;;4.26;96.97;97418.16;6065283;23;20192;-81
2023/02/13 01:34:22;;;;;;;18.93;12.90;;;;;;;4.31;96.71;97416.16;6064519;23;20187;-80
2023/02/13 01:36:49;;;;;;;19.67;12.40;;;;;;;4.28;96.59;97416.34;6049861;23;20292;-80
2023/02/13 01:39:17;;;;;;;17.97;12.97;;;;;;;4.36;96.31;97416.69;6064787;23;20200;-81
2023/02/13 01:41:43;;;;;;;20.47;13.00;;;;;;;4.37;96.20;97412.41;6065090;23;20187;-80
2023/02/13 01:44:50;;;;;;;19.57;13.67;;;;;;;4.38;96.20;97414.88;6064152;23;20668;-80
2023/02/13 01:47:22;;;;;;;16.13;11.77;;;;;;;4.38;95.39;97412.34;6063206;23;20211;-81
2023/02/13 01:49:50;;;;;;;24.50;13.17;;;;;;;4.35;95.74;97416.78;6065661;23;20236;-81
2023/02/13 01:52:17;;;;;;;24.00;12.57;;;;;;;4.21;96.67;97409.97;6065466;23;20188;-80
2023/02/13 01:54:46;;;;;;;19.03;12.63;;;;;;;4.27;97.30;97414.69;6065451;23;20204;-80
2023/02/13 01:57:16;;;;;;;20.13;13.90;;;;;;;4.28;96.91;97416.34;6049775;23;20224;-81
2023/02/13 01:59:48;;;;;;;24.80;13.17;;;;;;;4.14;97.67;97409.53;6064418;23;20217;-81
2023/02/13 02:02:15;;;;;;;19.57;12.17;;;;;;;4.19;97.13;97408.44;6064843;23;20703;-80
2023/02/13 02:04:43;;;;;;;17.47;12.07;;;;;;;4.27;96.61;97413.88;6065072;23;20204;-81
2023/02/13 02:07:14;;;;;;;19.50;12.93;;;;;;;4.23;97.08;97410.72;6065027;23;20209;-80
2023/02/13 02:09:43;;;;;;;20.93;12.60;;;;;;;4.28;96.72;97412.97;6063957;23;20209;-81
2023/02/13 02:12:17;;;;;;;19.57;12.80;;;;;;;4.06;98.30;97409.16;6064383;23;20189;-81
2023/02/13 02:14:45;;;;;;;19.73;12.90;;;;;;;4.13;98.19;97420.63;6064149;23;20204;-80
2023/02/13 02:17:11;;;;;;;19.03;12.37;;;;;;;4.23;96.61;97423.47;6064816;23;20200;-80
2023/02/13 02:19:43;;;;;;;16.90;12.13;;;;;;;4.24;96.07;97426.81;6063594;23;20552;-80
2023/02/13 02:22:30;;;;;;;18.20;12.20;;;;;;;4.12;96.31;97419.00;6064244;23;20220;-81
2023/02/13 02:25:26;;;;;;;18.20;12.00;;;;;;;4.13;96.74;97427.47;6064482;23;20201;-81
2023/02/13 02:28:11;;;;;;;17.87;12.33;;;;;;;4.34;95.03;97423.63;6065128;23;20200;-80
2023/02/13 02:31:20;;;;;;;19.33;12.43;;;;;;;4.40;94.38;97417.34;6068384;23;20247;-81
2023/02/13 02:33:59;;;;;;;15.87;11.70;;;;;;;4.51;93.78;97408.09;6052512;23;20200;-81
2023/02/13 02:36:41;;;;;;;14.30;11.03;;;;;;;4.65;92.73;97411.53;6066889;23;20219;-80
2023/02/13 02:39:21;;;;;;;19.07;12.57;;;;;;;4.72;91.83;97420.47;6052099;23;20911;-81
2023/02/13 02:41:59;;;;;;;15.27;11.27;;;;;;;4.72;91.28;97421.28;6067635;23;20575;-81
2023/02/13 02:44:38;;;;;;;15.50;11.53;;;;;;;4.66;91.49;97419.09;6067351;23;20175;-80
2023/02/13 02:50:24;;;;;;;17.77;11.50;;;;;;;4.49;92.17;97421.88;6031818;23;20724;-80
2023/02/13 02:53:04;;;;;;;14.50;10.30;;;;;;;4.59;91.64;97419.59;6068556;23;20227;-80
2023/02/13 02:55:39;;;;;;;16.10;11.33;;;;;;;4.56;91.22;97423.13;6067828;23;20200;-81
2023/02/13 03:06:36;;;;;;;14.30;10.20;;;;;;;4.25;93.54;97421.63;6067791;23;20277;-82
2023/02/13 03:14:40;;;;;;;16.33;10.90;;;;;;;3.97;94.73;97414.00;6067593;23;20682;-83
2023/02/13 03:23:02;;;;;;;15.47;11.07;;;;;;;4.06;94.72;97418.53;5958841;23;20264;-83
2023/02/13 03:25:36;;;;;;;15.00;11.17;;;;;;;4.01;93.88;97416.28;6067031;23;20216;-83
2023/02/13 03:31:00;;;;;;;14.87;10.23;;;;;;;3.99;95.14;97420.63;6066824;23;20240;-83
2023/02/13 03:33:44;;;;;;;17.63;12.70;;;;;;;4.08;94.48;97419.25;6067294;23;20172;-82
2023/02/13 03:39:12;;;;;;;12.97;9.23;;;;;;;3.85;94.39;97437.66;6014689;23;20215;-83
2023/02/13 03:41:41;;;;;;;14.73;9.70;;;;;;;3.70;95.16;97440.16;6065110;23;20200;-83
2023/02/13 03:44:13;;;;;;;13.23;10.13;;;;;;;3.79;95.23;97441.38;6065232;23;20177;-83
2023/02/13 03:46:44;;;;;;;13.27;10.33;;;;;;;3.67;95.72;97437.78;6066092;23;20201;-83
2023/02/13 03:52:05;;;;;;;16.20;10.57;;;;;;;3.68;95.44;97434.31;6065337;23;20217;-83
2023/02/13 04:00:14;;;;;;;12.93;9.93;;;;;;;3.79;95.03;97432.00;6065470;23;20295;-83
2023/02/13 04:02:47;;;;;;;13.27;9.57;;;;;;;3.86;94.10;97429.06;6064873;23;20206;-83
2023/02/13 04:05:18;;;;;;;12.47;9.80;;;;;;;3.77;94.37;97433.81;6064992;23;20205;-83
2023/02/13 04:07:48;;;;;;;13.03;9.63;;;;;;;3.78;94.84;97438.00;6036583;23;20204;-83
2023/02/13 04:10:17;;;;;;;14.30;9.83;;;;;;;3.80;94.50;97435.38;6065725;23;20264;-82
2023/02/13 04:12:52;;;;;;;11.90;9.27;;;;;;;3.91;93.96;97442.38;6065776;23;20256;-82
2023/02/13 04:15:26;;;;;;;12.77;9.80;;;;;;;3.89;93.72;97436.53;6065536;23;20753;-83
2023/02/13 04:17:57;;;;;;;13.73;9.83;;;;;;;4.03;93.26;97441.66;6026639;23;20201;-83
2023/02/13 04:20:27;;;;;;;14.40;9.43;;;;;;;4.02;93.05;97438.31;6064824;23;20561;-83
2023/02/13 04:22:53;;;;;;;12.97;9.90;;;;;;;4.16;92.61;97434.94;6065268;23;20351;-83
2023/02/13 04:25:21;;;;;;;14.67;10.40;;;;;;;4.25;91.74;97434.34;6064867;23;20371;-83
2023/02/13 04:27:48;;;;;;;14.77;10.53;;;;;;;4.34;91.32;97430.44;6049936;23;20216;-83
2023/02/13 04:30:14;;;;;;;13.43;10.23;;;;;;;4.30;90.78;97436.63;6064195;23;20632;-83
2023/02/13 04:32:41;;;;;;;13.17;10.10;;;;;;;4.29;90.71;97440.91;6065059;23;20193;-83
2023/02/13 04:35:10;;;;;;;11.90;9.40;;;;;;;4.13;90.83;97435.09;6064634;23;20224;-82
2023/02/13 04:37:36;;;;;;;11.60;8.73;;;;;;;3.94;91.60;97437.09;6065421;23;20203;-83
2023/02/13 04:40:03;;;;;;;11.57;8.50;;;;;;;3.81;92.26;97432.72;6064451;23;20215;-83
2023/02/13 04:42:31;;;;;;;10.47;8.23;;;;;;;3.57;93.53;97434.13;6065368;23;20441;-83
2023/02/13 04:44:58;;;;;;;11.77;8.70;;;;;;;3.62;93.46;97432.16;6065432;23;20252;-82
2023/02/13 04:47:24;;;;;;;9.93;8.23;;;;;;;3.70;92.91;97432.50;6065844;23;20197;-83
2023/02/13 04:49:51;;;;;;;13.00;9.10;;;;;;;3.73;93.13;97434.88;6064893;23;20215;-83
2023/02/13 04:52:17;;;;;;;12.43;9.80;;;;;;;3.87;92.25;97435.81;6049413;23;20220;-83
2023/02/13 04:54:44;;;;;;;11.40;9.60;;;;;;;3.94;92.37;97443.00;6064470;23;20205;-83
2023/02/13 04:57:10;;;;;;;12.93;9.73;;;;;;;4.09;91.58;97441.28;6065638;23;20510;-83
2023/02/13 04:59:38;;;;;;;13.20;10.33;;;;;;;4.22;90.85;97436.31;6064846;23;20276;-82
2023/02/13 05:02:04;;;;;;;11.70;9.70;;;;;;;4.20;89.95;97431.28;6064857;23;20196;-83
2023/02/13 05:04:31;;;;;;;12.00;9.80;;;;;;;4.21;90.00;97437.22;6064261;23;20200;-83
2023/02/13 05:06:57;;;;;;;13.00;9.97;;;;;;;4.18;89.98;97435.66;6049001;23;20704;-83
2023/02/13 05:09:24;;;;;;;10.87;9.77;;;;;;;4.23;89.71;97433.66;6063985;23;20830;-83
2023/02/13 05:11:51;;;;;;;11.90;10.17;;;;;;;4.24;89.26;97444.66;6065329;23;20184;-81
2023/02/13 05:14:18;;;;;;;12.50;9.83;;;;;;;4.22;89.84;97447.31;6064498;23;20181;-80
2023/02/13 05:16:46;;;;;;;12.30;9.90;;;;;;;4.28;89.49;97444.38;6065703;23;20201;-80
2023/02/13 05:19:12;;;;;;;13.50;10.73;;;;;;;4.33;89.18;97439.00;6064718;23;20181;-80
2023/02/13 05:24:23;;;;;;;15.47;10.90;;;;;;;4.44;88.48;97445.09;6065557;23;20544;-81
2023/02/13 05:26:49;;;;;;;13.27;10.43;;;;;;;4.45;88.20;97443.38;6065273;23;20612;-81
2023/02/13 05:29:18;;;;;;;13.37;11.27;;;;;;;4.46;88.37;97442.44;6063946;23;20268;-81
2023/02/13 05:31:47;;;;;;;14.37;10.93;;;;;;;4.47;88.26;97444.91;6064867;23;20184;-81
2023/02/13 05:34:13;;;;;;;13.27;11.20;;;;;;;4.38;88.35;97447.22;6064308;23;20177;-80
2023/02/13 05:36:40;;;;;;;15.27;10.97;;;;;;;4.36;87.95;97449.03;6064794;23;20196;-81
2023/02/13 05:39:06;;;;;;;14.57;11.60;;;;;;;4.36;87.86;97452.41;6064999;23;20176;-81
2023/02/13 05:41:33;;;;;;;16.30;11.70;;;;;;;4.40;87.79;97447.94;6048619;23;20213;-81
2023/02/13 05:43:59;;;;;;;14.67;11.60;;;;;;;4.41;87.57;97444.47;6064872;23;20589;-81
2023/02/13 05:46:26;;;;;;;13.90;11.53;;;;;;;4.35;87.44;97440.56;6064301;23;20208;-81
2023/02/13 05:48:54;;;;;;;15.13;12.60;;;;;;;4.35;87.30;97453.31;6065265;23;20664;-81
2023/02/13 05:51:21;;;;;;;14.37;11.63;;;;;;;4.32;87.42;97453.50;6064055;23;20208;-81
2023/02/13 05:53:47;;;;;;;13.27;10.87;;;;;;;4.25;88.11;97453.94;6062825;23;20668;-81
2023/02/13 05:56:13;;;;;;;13.63;10.67;;;;;;;4.24;87.41;97463.31;6061643;23;20208;-81
2023/02/13 05:58:40;;;;;;;13.07;10.97;;;;;;;4.27;87.25;97460.59;6064171;23;20189;-83
2023/02/13 06:01:07;;;;;;;13.20;11.20;;;;;;;4.28;87.15;97457.13;6060263;23;20235;-83
2023/02/13 06:03:33;;;;;;;13.83;10.83;;;;;;;4.35;87.22;97458.41;6062961;23;20188;-83
2023/02/13 06:06:01;;;;;;;15.57;11.87;;;;;;;4.43;86.50;97460.47;6053038;23;20221;-82
2023/02/13 06:08:28;;;;;;;13.80;11.63;;;;;;;4.43;86.57;97468.97;6059483;23;20197;-83
2023/02/13 06:10:55;;;;;;;16.73;12.90;;;;;;;4.42;86.66;97467.34;6062894;23;20209;-83
2023/02/13 06:13:21;;;;;;;14.83;12.07;;;;;;;4.42;86.21;97464.78;6064300;23;20177;-83
2023/02/13 06:15:49;;;;;;;17.60;13.40;;;;;;;4.43;86.18;97468.97;6063098;23;20714;-83
2023/02/13 06:18:16;;;;;;;16.20;13.10;;;;;;;4.43;86.17;97475.78;6063911;23;20201;-83
2023/02/13 06:20:42;;;;;;;17.03;12.70;;;;;;;4.43;86.06;97470.69;6059951;23;20208;-83
2023/02/13 06:23:10;;;;;;;16.07;12.77;;;;;;;4.44;85.86;97470.59;6063356;23;20185;-83
2023/02/13 06:25:37;;;;;;;18.70;14.27;;;;;;;4.46;86.24;97468.78;6061799;23;20727;-83
2023/02/13 06:28:04;;;;;;;17.43;13.30;;;;;;;4.47;85.70;97472.16;6061770;23;20208;-83
2023/02/13 06:30:31;;;;;;;17.60;12.97;;;;;;;4.50;85.84;97480.44;6062658;23;20212;-83
2023/02/13 06:32:57;;;;;;;15.60;12.67;;;;;;;4.53;85.62;97493.94;6064084;23;20228;-83
2023/02/13 06:35:24;;;;;;;34.93;17.00;;;;;;;4.37;95.71;97483.81;6063149;23;20204;-83
2023/02/13 06:37:50;;;;;;;19.20;13.47;;;;;;;4.43;90.17;97486.00;6065899;23;20223;-83
2023/02/13 06:40:18;;;;;;;18.40;13.33;;;;;;;4.45;88.06;97487.53;6061353;23;20212;-83
2023/02/13 06:42:54;;;;;;;20.03;15.60;;;;;;;4.46;87.35;97483.25;6065073;23;20263;-82
2023/02/13 06:45:20;;;;;;;19.13;14.37;;;;;;;4.50;86.29;97482.16;6065116;23;20766;-83
2023/02/13 06:47:49;;;;;;;16.80;12.43;;;;;;;4.41;85.86;97485.28;6064804;23;20200;-83
2023/02/13 06:50:17;;;;;;;27.50;19.60;;;;;;;4.33;87.65;97490.84;6064599;23;20283;-83
2023/02/13 06:52:46;;;;;;;21.50;15.47;;;;;;;4.20;88.45;97489.94;6065521;23;20177;-83
2023/02/13 06:55:13;;;;;;;18.73;14.43;;;;;;;4.34;87.86;97501.84;6064541;23;20556;-83
2023/02/13 06:57:41;;;;;;;21.03;16.00;;;;;;;4.42;87.24;97495.41;6065208;23;20219;-83
2023/02/13 07:00:12;;;;;;;17.53;13.17;;;;;;;4.45;86.32;97500.28;6065075;23;20215;-83
2023/02/13 07:02:38;;;;;;;16.97;12.93;;;;;;;4.45;86.63;97497.75;6064888;23;20182;-83
2023/02/13 07:05:05;;;;;;;15.53;12.50;;;;;;;4.44;86.15;97505.47;6065374;23;20204;-84
2023/02/13 07:07:33;;;;;;;16.17;13.17;;;;;;;4.49;85.38;97500.94;6065972;23;20205;-83
2023/02/13 07:09:59;;;;;;;16.27;12.87;;;;;;;4.49;85.29;97508.59;6065044;23;20552;-83
2023/02/13 07:12:26;;;;;;;17.33;13.37;;;;;;;4.45;85.12;97512.22;6065185;23;20184;-84
2023/02/13 07:14:54;;;;;;;20.23;16.17;;;;;;;4.45;85.97;97515.59;6066560;23;20201;-83
2023/02/13 07:17:20;;;;;;;21.40;15.17;;;;;;;4.55;85.11;97510.78;6067400;23;20201;-83
2023/02/13 07:19:46;;;;;;;18.47;13.30;;;;;;;4.58;84.33;97505.50;6067345;23;20755;-83
2023/02/13 07:22:13;;;;;;;17.93;13.53;;;;;;;4.63;84.39;97517.97;6067085;23;20200;-83
2023/02/13 07:24:39;;;;;;;16.53;13.03;;;;;;;4.65;83.75;97519.50;6066349;23;20205;-82
2023/02/13 07:27:06;;;;;;;15.57;12.73;;;;;;;4.66;83.94;97513.50;6066011;23;20217;-83
2023/02/13 07:29:32;;;;;;;16.77;13.37;;;;;;;4.65;83.46;97516.97;6066817;23;20205;-83
2023/02/13 07:32:00;;;;;;;48.73;34.13;;;;;;;4.63;83.76;97525.59;6067543;23;20173;-82
2023/02/13 07:34:26;;;;;;;32.57;24.47;;;;;;;4.61;83.90;97532.56;6065232;23;20185;-83
2023/02/13 07:36:53;;;;;;;19.53;14.57;;;;;;;4.62;84.11;97531.66;6067794;23;20524;-83
2023/02/13 07:39:19;;;;;;;17.97;13.60;;;;;;;4.62;84.01;97529.09;6066750;23;20188;-83
2023/02/13 07:41:46;;;;;;;17.33;13.90;;;;;;;4.57;84.03;97531.91;6067341;23;20197;-83
2023/02/13 07:44:12;;;;;;;16.77;13.10;;;;;;;4.63;83.62;97540.91;6066025;23;20188;-83
2023/02/13 07:46:39;;;;;;;17.17;13.90;;;;;;;4.61;84.19;97537.66;6066696;23;20201;-83
2023/02/13 07:49:06;;;;;;;17.90;13.17;;;;;;;4.60;84.19;97534.28;6066787;23;20192;-83
2023/02/13 07:51:33;;;;;;;17.90;12.87;;;;;;;4.70;84.16;97537.09;6066585;23;20193;-83
2023/02/13 07:54:01;;;;;;;22.47;16.17;;;;;;;4.73;83.53;97545.41;6068592;23;20177;-83
2023/02/13 07:56:27;;;;;;;20.10;15.70;;;;;;;4.55;83.90;97546.50;6065847;23;20208;-81
2023/02/13 07:58:54;;;;;;;20.10;14.57;;;;;;;4.54;84.53;97549.13;6067674;23;20188;-81
2023/02/13 08:01:20;;;;;;;17.07;13.23;;;;;;;4.62;83.76;97549.50;6066219;23;20209;-81
2023/02/13 08:03:50;;;;;;;15.50;12.87;;;;;;;4.61;84.23;97556.34;6037149;23;20209;-81
2023/02/13 08:06:19;;;;;;;17.33;13.23;;;;;;;4.65;83.75;97551.84;6066075;23;20208;-81
2023/02/13 08:08:45;;;;;;;18.73;12.93;;;;;;;4.71;83.23;97551.50;6065809;23;20184;-80
2023/02/13 08:14:08;;;;;;;18.00;13.90;;;;;;;4.75;83.67;97553.78;6064692;23;20195;-83
2023/02/13 08:16:35;;;;;;;16.67;13.10;;;;;;;4.80;83.03;97551.78;6065520;23;20201;-84
2023/02/13 08:19:01;;;;;;;18.50;14.10;;;;;;;4.85;83.04;97554.03;6065084;23;20698;-83
2023/02/13 08:21:30;;;;;;;20.93;14.43;;;;;;;4.83;82.49;97550.75;6064754;23;20696;-83
2023/02/13 08:23:57;;;;;;;19.70;14.53;;;;;;;4.76;83.26;97554.59;6066273;23;20668;-83
2023/02/13 08:26:23;;;;;;;18.60;14.30;;;;;;;4.73;83.54;97552.22;6066263;23;20548;-83
2023/02/13 08:28:50;;;;;;;22.57;16.53;;;;;;;4.83;83.22;97549.00;6068333;23;20729;-84
2023/02/13 08:31:16;;;;;;;20.70;16.00;;;;;;;4.92;82.93;97542.56;6067007;23;20209;-83
2023/02/13 08:33:42;;;;;;;18.37;14.50;;;;;;;4.75;82.95;97546.13;6067209;23;20245;-84
2023/02/13 08:36:09;;;;;;;20.10;15.20;;;;;;;4.58;84.89;97546.31;6073782;23;20553;-83
2023/02/13 08:38:37;;;;;;;26.90;19.67;;;;;;;4.58;85.47;97542.94;6075811;23;20201;-83
2023/02/13 08:41:03;;;;;;;54.83;38.63;;;;;;;4.54;85.75;97541.47;6078567;23;20220;-81
2023/02/13 08:43:30;;;;;;;22.30;17.10;;;;;;;4.54;86.06;97549.13;6080770;23;20181;-80
2023/02/13 08:45:58;;;;;;;21.33;16.13;;;;;;;4.53;86.15;97540.66;6077294;23;20228;-80
2023/02/13 08:48:25;;;;;;;18.17;14.67;;;;;;;4.72;85.68;97548.03;6076180;23;20201;-83
2023/02/13 08:50:51;;;;;;;18.87;14.27;;;;;;;4.85;85.24;97542.09;6076055;23;20213;-83
2023/02/13 08:53:18;;;;;;;17.83;13.87;;;;;;;4.95;84.32;97547.47;6076731;23;20177;-83
2023/02/13 08:55:53;;;;;;;22.03;15.57;;;;;;;4.93;84.22;97541.63;6077035;23;20223;-83
2023/02/13 08:58:19;;;;;;;18.87;14.33;;;;;;;4.79;86.28;97554.41;6077800;23;20264;-83
2023/02/13 09:00:45;;;;;;;18.13;14.60;;;;;;;4.93;84.89;97551.03;6071357;23;20209;-82
2023/02/13 09:03:12;;;;;;;21.87;15.17;;;;;;;4.92;83.82;97541.72;6071983;23;20197;-83
2023/02/13 09:05:38;;;;;;;21.23;15.07;;;;;;;4.90;84.66;97548.66;6071145;23;20347;-83
2023/02/13 09:08:06;;;;;;;19.97;15.07;;;;;;;4.87;83.95;97544.56;6040706;23;20216;-83
2023/02/13 09:10:33;;;;;;;21.67;15.77;;;;;;;4.95;83.87;97554.31;6069347;23;20846;-83
2023/02/13 09:13:01;;;;;;;19.83;15.23;;;;;;;4.98;83.54;97554.94;6070214;23;20181;-83
2023/02/13 09:15:28;;;;;;;21.97;15.80;;;;;;;4.94;83.57;97553.50;6070177;23;20208;-84
2023/02/13 09:17:54;;;;;;;20.30;15.70;;;;;;;4.95;83.66;97559.41;6068095;23;20208;-84
2023/02/13 09:20:20;;;;;;;20.77;15.37;;;;;;;4.91;83.95;97557.94;6067677;23;20224;-83
2023/02/13 09:22:47;;;;;;;22.20;16.43;;;;;;;4.96;83.72;97561.06;6066903;23;20271;-83
2023/02/13 09:25:13;;;;;;;22.20;16.20;;;;;;;4.96;83.09;97569.53;6068323;23;20211;-83
2023/02/13 09:27:40;;;;;;;22.27;16.67;;;;;;;5.03;83.06;97567.41;6067032;23;20204;-84
2023/02/13 09:30:10;;;;;;;21.57;16.27;;;;;;;5.15;82.63;97574.34;6067947;23;20211;-83
2023/02/13 09:32:36;;;;;;;20.30;15.63;;;;;;;5.18;81.92;97562.22;6069452;23;20520;-84
2023/02/13 09:35:05;;;;;;;19.33;15.60;;;;;;;5.20;81.86;97565.47;6068205;23;20208;-84
2023/02/13 09:37:32;;;;;;;21.13;15.50;;;;;;;5.10;82.30;97563.59;6068763;23;20212;-83
2023/02/13 09:39:58;;;;;;;22.30;15.73;;;;;;;5.08;81.95;97566.22;6067943;23;20212;-83
2023/02/13 09:42:29;;;;;;;21.23;16.90;;;;;;;5.00;82.37;97559.97;6068394;23;20208;-83
2023/02/13 09:45:00;;;;;;;80.63;58.97;;;;;;;4.80;84.20;97562.00;6068017;23;20205;-84
2023/02/13 09:47:31;;;;;;;59.13;39.90;;;;;;;4.90;83.83;97557.13;6068164;23;20200;-83
2023/02/13 09:50:02;;;;;;;26.13;20.33;;;;;;;5.02;83.00;97560.66;6066205;23;20211;-83
2023/02/13 09:52:33;;;;;;;26.37;17.13;;;;;;;5.10;82.46;97564.41;6067451;23;20165;-84
2023/02/13 09:55:00;;;;;;;19.93;15.60;;;;;;;5.12;81.82;97560.03;6067830;23;20204;-84
2023/02/13 09:57:57;;;;;;;25.90;16.60;;;;;;;5.11;81.88;97560.13;6053934;23;20684;-81
2023/02/13 10:00:29;;;;;;;21.07;15.07;;;;;;;4.96;82.10;97559.31;6061372;23;20208;-83
2023/02/13 10:03:19;;;;;;;20.57;15.97;;;;;;;4.85;83.42;97569.34;6067314;23;20181;-84
2023/02/13 10:05:55;;;;;;;22.10;16.23;;;;;;;5.01;82.88;97567.50;6049357;23;20268;-83
2023/02/13 10:08:33;;;;;;;20.93;15.97;;;;;;;4.88;82.46;97581.09;6052099;23;20683;-82
2023/02/13 10:11:07;;;;;;;20.97;15.97;;;;;;;4.96;82.21;97573.81;6067324;23;20208;-84
2023/02/13 10:13:56;;;;;;;21.47;16.40;;;;;;;5.10;81.71;97566.13;6067837;23;20632;-84
2023/02/13 10:16:28;;;;;;;19.60;15.07;;;;;;;5.21;80.89;97568.84;6067189;23;20212;-83
2023/02/13 10:19:00;;;;;;;24.03;16.63;;;;;;;5.30;80.62;97565.72;6063737;23;20725;-83
2023/02/13 10:21:30;;;;;;;20.63;15.87;;;;;;;5.27;80.03;97562.53;6063517;23;20205;-84
2023/02/13 10:24:01;;;;;;;20.33;15.70;;;;;;;5.36;80.00;97562.81;6066268;23;20653;-83
2023/02/13 10:26:42;;;;;;;20.93;15.87;;;;;;;5.03;81.14;97560.56;6066788;23;20260;-84
2023/02/13 10:32:06;;;;;;;22.73;15.63;;;;;;;4.74;82.59;97564.06;6066623;23;20182;-83
2023/02/13 10:34:41;;;;;;;20.50;16.37;;;;;;;4.69;83.18;97561.78;6067035;23;20205;-84
2023/02/13 10:37:14;;;;;;;20.97;15.73;;;;;;;4.91;82.45;97560.50;6066602;23;20555;-84
2023/02/13 10:39:43;;;;;;;19.63;15.37;;;;;;;5.13;81.72;97553.19;6065990;23;20200;-83
2023/02/13 10:42:22;;;;;;;19.40;15.40;;;;;;;5.16;80.57;97563.22;6067334;23;20196;-83
2023/02/13 10:44:57;;;;;;;20.17;15.43;;;;;;;4.91;80.32;97556.22;6067393;23;20311;-84
2023/02/13 10:47:44;;;;;;;21.27;15.20;;;;;;;4.84;81.88;97558.31;6066943;23;20197;-84
2023/02/13 10:50:22;;;;;;;18.70;15.00;;;;;;;4.92;81.26;97551.94;6063811;23;20213;-83
2023/02/13 10:52:56;;;;;;;20.30;15.00;;;;;;;5.01;80.61;97544.53;6036744;23;20201;-84
2023/02/13 10:55:53;;;;;;;21.07;15.10;;;;;;;5.21;79.88;97550.97;6068113;23;20230;-84
2023/02/13 10:58:25;;;;;;;21.53;15.00;;;;;;;5.21;79.43;97545.84;6039876;23;20684;-84
2023/02/13 11:00:56;;;;;;;18.50;15.37;;;;;;;5.07;80.52;97549.25;6068896;23;20225;-81
2023/02/13 11:03:24;;;;;;;21.73;16.00;;;;;;;5.19;79.74;97540.88;6068974;23;20189;-81
2023/02/13 11:05:52;;;;;;;19.97;15.77;;;;;;;5.30;79.74;97534.25;6067731;23;20207;-81
2023/02/13 11:08:22;;;;;;;36.53;24.83;;;;;;;5.45;79.50;97533.28;6070175;23;20441;-81
2023/02/13 11:10:49;;;;;;;22.30;16.83;;;;;;;5.48;81.00;97538.22;6067966;23;20212;-82
2023/02/13 11:13:18;;;;;;;19.87;15.13;;;;;;;5.49;79.01;97527.09;6067917;23;20177;-82
2023/02/13 11:16:01;;;;;;;20.80;16.10;;;;;;;5.30;78.36;97531.72;6068516;23;20565;-81
2023/02/13 11:18:29;;;;;;;20.07;16.47;;;;;;;5.30;78.26;97524.88;6068637;23;20251;-81
2023/02/13 11:21:02;;;;;;;21.10;16.53;;;;;;;5.30;78.36;97524.03;6067189;23;20244;-81
2023/02/13 11:23:37;;;;;;;24.07;18.77;;;;;;;5.36;78.30;97523.66;6038556;23;20305;-81
2023/02/13 11:26:08;;;;;;;22.03;17.13;;;;;;;5.49;78.27;97524.53;6068416;23;20253;-81
2023/02/13 11:28:37;;;;;;;25.47;18.90;;;;;;;5.49;78.02;97525.34;6067247;23;20207;-81
2023/02/13 11:31:13;;;;;;;23.77;19.27;;;;;;;5.59;77.36;97524.75;6068013;23;20213;-81
2023/02/13 11:33:41;;;;;;;23.97;18.63;;;;;;;5.66;77.24;97524.25;6068105;23;20187;-81
2023/02/13 11:36:13;;;;;;;25.23;19.30;;;;;;;5.74;76.50;97524.59;6068307;23;20215;-81
2023/02/13 11:38:40;;;;;;;23.53;19.13;;;;;;;5.60;77.02;97522.09;6068935;23;20540;-81
2023/02/13 11:41:10;;;;;;;26.07;20.53;;;;;;;5.58;76.93;97521.38;6066519;23;20213;-81
2023/02/13 11:43:43;;;;;;;23.07;17.17;;;;;;;5.59;77.11;97522.19;6068017;23;20200;-81
2023/02/13 11:46:17;;;;;;;21.10;17.40;;;;;;;5.59;77.83;97528.13;6067828;23;20319;-80
2023/02/13 11:48:56;;;;;;;23.27;18.40;;;;;;;5.49;77.60;97520.22;6069485;23;20758;-82
2023/02/13 11:51:35;;;;;;;24.40;17.80;;;;;;;5.44;77.95;97524.81;6062511;23;20213;-83
2023/02/13 11:54:02;;;;;;;24.77;18.40;;;;;;;5.58;77.60;97526.47;6034912;23;20236;-84
2023/02/13 11:56:28;;;;;;;79.57;56.30;;;;;;;5.55;77.57;97524.97;6065610;23;20208;-84
2023/02/13 11:59:02;;;;;;;36.83;26.90;;;;;;;5.54;78.02;97530.16;6067906;23;20184;-81
2023/02/13 12:01:29;;;;;;;27.53;19.77;;;;;;;5.68;77.46;97526.72;6064997;23;20268;-81
2023/02/13 12:04:14;;;;;;;23.80;16.80;;;;;;;5.59;77.61;97524.75;6048900;23;20221;-81
2023/02/13 12:06:59;;;;;;;21.73;16.37;;;;;;;5.70;77.86;97525.72;6064064;23;20283;-81
2023/02/13 12:09:25;;;;;;;23.33;17.30;;;;;;;5.80;76.80;97528.47;6064880;23;20161;-81
2023/02/13 12:11:54;;;;;;;21.73;17.83;;;;;;;5.90;76.52;97519.34;6052055;23;20228;-81
2023/02/13 12:14:24;;;;;;;23.07;17.33;;;;;;;6.01;76.54;97516.91;6066938;23;20177;-81
2023/02/13 12:16:54;;;;;;;21.80;15.57;;;;;;;6.12;75.95;97514.47;6067138;23;20201;-81
2023/02/13 12:19:25;;;;;;;19.23;16.30;;;;;;;6.16;75.75;97510.75;6065502;23;20180;-81
2023/02/13 12:22:08;;;;;;;20.63;15.03;;;;;;;6.22;75.30;97514.66;6051818;23;20213;-81
2023/02/13 12:25:10;;;;;;;19.17;14.93;;;;;;;6.18;74.71;97511.47;6066974;23;20548;-81